Meath Environmental Platform

Observations for Trim Market St

Time AQI Temp °C Hum % Pres Pa CO μg/m³ H₂S μg/m³ NO μg/m³ NO₂ μg/m³ O₃ μg/m³ SO₂ μg/m³ PM1 μg/m³ PM2.5 μg/m³ PM10 μg/m³
Friday 14 August 2026
22:02 2 20.3 60 57,855 0 3.84 1.22 21.93 63.69 0 0 2.04 2.71
21:58 2 20.4 59 57,887 0 4.31 1.2 32.43 53.31 0 0 1.57 1.99
21:57 2 20.5 59 57,889 0 4.76 1.21 20.69 70.06 0 0 1.58 2.67
21:51 2 20.6 58 57,839 0 3.71 1.2 22.25 61.58 0 0 2.13 3.32
21:50 2 20.6 57 57,802 0 5.84 1.2 22.84 61.01 0 0 1.64 1.91
21:49 2 20.7 57 57,756 0 9.82 1.2 36.06 67.41 0 0 1.66 1.88
21:48 2 20.7 56 57,691 0 7.76 1.21 23.05 67.07 0 0 1.68 1.86
21:46 2 20.7 56 57,482 0 1.04 1.2 17.09 69.48 0 0 2.21 2.55
21:45 2 20.7 56 57,334 0 0 1.2 15.75 64.34 0 0 1.71 1.83
21:44 2 20.8 56 57,198 0 0 1.2 12.18 68.82 0 0 1.71 1.82
21:43 2 20.8 55 57,144 0 0 1.21 12.65 68.09 0 0 1.71 2.53
21:42 2 20.8 55 57,090 0 0 1.23 12.14 68.02 0 0 1.72 1.81
21:41 2 20.8 55 57,016 0 0 1.23 12.03 74.29 0 0 1.72 1.81
21:36 2 20.8 55 56,821 0.03 0 1.22 12.02 60.8 0 0.71 2.24 2.52
21:32 2 20.9 55 56,738 0 0 1.22 19.24 56.71 0 0 2.24 2.51
21:27 2 21 55 56,660 0 0 1.22 12.8 64.81 0 0.71 2.76 3.22
21:26 2 21 55 56,645 0 0 1.22 15.48 59.3 0 0 1.74 1.79
21:20 2 21.1 54 56,597 0 0 1.22 11.98 71.2 0 0 1.75 1.78
21:19 2 21.1 54 56,592 0 0 1.22 11.94 69.31 0 0 1.76 1.77
21:18 2 21.1 54 56,560 0 0 1.22 11.77 71.51 0 0 1.76 2.49